Time;durP1;ratioP1;P1;durP2;ratioP2;P2;SDS_P1;SDS_P2;PMS_P1;PMS_P2;Temp;Humidity;BMP_temperature;BMP_pressure;BME280_temperature;BME280_humidity;BME280_pressure;Samples;Min_cycle;Max_cycle;Signal;HPM_P1;HPM_P2
2023/04/09 00:02:55;;;;;;;;;;;;;;;3.80;100.00;96288.53;10532722;28;1112;-78
2023/04/09 00:07:58;;;;;;;;;;;;;;;3.79;100.00;96280.78;10510052;28;1409;-79
2023/04/09 00:13:01;;;;;;;;;;;;;;;3.82;100.00;96272.38;10524801;28;1890;-78
2023/04/09 00:18:04;;;;;;;;;;;;;;;3.92;100.00;96269.19;10526988;28;1163;-76
2023/04/09 00:23:06;;;;;;;;;;;;;;;3.88;100.00;96273.31;10517426;28;1666;-77
2023/04/09 00:28:09;;;;;;;;;;;;;;;3.89;100.00;96264.34;10527387;28;1115;-78
2023/04/09 00:33:12;;;;;;;;;;;;;;;3.81;100.00;96260.09;10526250;28;1914;-78
2023/04/09 00:38:18;;;;;;;;;;;;;;;3.80;100.00;96253.16;10518698;28;1522;-79
2023/04/09 00:43:21;;;;;;;;;;;;;;;3.92;100.00;96259.38;10510752;28;1510;-77
2023/04/09 00:48:23;;;;;;;;;;;;;;;3.99;100.00;96254.78;10532652;28;1601;-78
2023/04/09 00:53:26;;;;;;;;;;;;;;;3.97;100.00;96251.56;10518257;28;1906;-78
2023/04/09 00:58:29;;;;;;;;;;;;;;;3.95;100.00;96250.16;10539996;28;1467;-78
2023/04/09 01:03:31;;;;;;;;;;;;;;;3.98;100.00;96252.38;10526836;28;1060;-79
2023/04/09 01:08:34;;;;;;;;;;;;;;;4.00;100.00;96240.47;10541437;28;1499;-79
2023/04/09 01:13:36;;;;;;;;;;;;;;;4.08;100.00;96252.69;10532971;28;2249;-77
2023/04/09 01:18:39;;;;;;;;;;;;;;;3.96;100.00;96244.63;10532229;28;1530;-77
2023/04/09 01:23:42;;;;;;;;;;;;;;;3.97;100.00;96248.09;10523011;28;1135;-78
2023/04/09 01:28:45;;;;;;;;;;;;;;;3.87;100.00;96248.56;10520784;28;1757;-78
2023/04/09 01:33:58;;;;;;;;;;;;;;;3.87;100.00;96245.09;10527874;28;1965;-78
2023/04/09 01:39:01;;;;;;;;;;;;;;;3.83;100.00;96249.25;10526327;28;1857;-77
2023/04/09 01:44:03;;;;;;;;;;;;;;;3.83;100.00;96246.59;10530595;28;1637;-78
2023/04/09 01:49:06;;;;;;;;;;;;;;;3.87;100.00;96253.09;10529992;28;1904;-77
2023/04/09 01:54:08;;;;;;;;;;;;;;;3.92;100.00;96255.91;10532281;28;1910;-78
2023/04/09 01:59:11;;;;;;;;;;;;;;;3.98;100.00;96252.38;10524337;28;1509;-79
2023/04/09 02:04:13;;;;;;;;;;;;;;;3.98;100.00;96252.38;10533549;28;1049;-76
2023/04/09 02:09:16;;;;;;;;;;;;;;;3.95;100.00;96263.47;10529365;28;1526;-78
2023/04/09 02:14:18;;;;;;;;;;;;;;;3.98;100.00;96255.84;10541275;28;1977;-78
2023/04/09 02:19:31;;;;;;;;;;;;;;;4.03;100.00;96255.19;10525503;28;1506;-77
2023/04/09 02:24:35;;;;;;;;;;;;;;;4.02;100.00;96250.91;10517275;28;1242;-77
2023/04/09 02:29:37;;;;;;;;;;;;;;;4.01;100.00;96246.63;10549452;28;1432;-76
2023/04/09 02:34:41;;;;;;;;;;;;;;;3.93;100.00;96247.69;10540395;28;1930;-77
2023/04/09 02:39:43;;;;;;;;;;;;;;;4.00;100.00;96240.47;10529991;28;1551;-78
2023/04/09 02:44:46;;;;;;;;;;;;;;;4.01;100.00;96247.44;10529558;28;1510;-78
2023/04/09 02:49:48;;;;;;;;;;;;;;;3.97;100.00;96250.75;10526529;28;1417;-78
2023/04/09 02:54:52;;;;;;;;;;;;;;;4.12;100.00;96237.88;10507566;28;1989;-78
2023/04/09 02:59:55;;;;;;;;;;;;;;;4.10;100.00;96231.97;10510816;28;1442;-78
2023/04/09 03:04:58;;;;;;;;;;;;;;;4.00;100.00;96234.31;10527732;28;1849;-77
2023/04/09 03:10:00;;;;;;;;;;;;;;;3.98;100.00;96231.09;10528806;28;1522;-77
2023/04/09 03:15:03;;;;;;;;;;;;;;;3.94;100.00;96228.03;10537196;28;1917;-78
2023/04/09 03:20:05;;;;;;;;;;;;;;;3.93;100.00;96222.94;10527528;28;1491;-77
2023/04/09 03:25:08;;;;;;;;;;;;;;;3.81;100.00;96225.50;10536986;28;1085;-78
2023/04/09 03:30:12;;;;;;;;;;;;;;;3.80;100.00;96239.84;10511323;28;1159;-77
2023/04/09 03:35:15;;;;;;;;;;;;;;;3.68;100.00;96237.09;10520661;28;1921;-77
2023/04/09 03:40:18;;;;;;;;;;;;;;;3.43;100.00;96249.56;10491647;28;1522;-78
2023/04/09 03:45:20;;;;;;;;;;;;;;;3.20;100.00;96255.50;10526412;28;1493;-77
2023/04/09 03:50:23;;;;;;;;;;;;;;;3.07;100.00;96253.75;10521370;28;1491;-77
2023/04/09 03:55:26;;;;;;;;;;;;;;;2.88;100.00;96266.13;10511278;28;1971;-77
2023/04/09 04:00:29;;;;;;;;;;;;;;;2.76;100.00;96270.47;10526958;28;1543;-78
2023/04/09 04:05:32;;;;;;;;;;;;;;;2.67;100.00;96274.38;10527952;28;1065;-78
2023/04/09 04:10:36;;;;;;;;;;;;;;;2.66;100.00;96278.88;10511253;28;1459;-78
2023/04/09 04:15:39;;;;;;;;;;;;;;;2.60;100.00;96285.03;10525284;28;1918;-77
2023/04/09 04:20:42;;;;;;;;;;;;;;;2.68;100.00;96276.84;10515504;28;1384;-77
2023/04/09 04:25:46;;;;;;;;;;;;;;;2.66;100.00;96281.53;10517401;28;1490;-77
2023/04/09 04:30:48;;;;;;;;;;;;;;;2.70;100.00;96282.75;10520060;28;1139;-76
2023/04/09 04:35:51;;;;;;;;;;;;;;;2.79;100.00;96287.81;10514333;28;1973;-76
2023/04/09 04:40:59;;;;;;;;;;;;;;;2.89;100.00;96285.50;10520179;28;1439;-77
2023/04/09 04:46:04;;;;;;;;;;;;;;;3.08;100.00;96283.78;10521737;28;1159;-78
2023/04/09 04:51:08;;;;;;;;;;;;;;;3.22;100.00;96275.50;10527073;28;1491;-77
2023/04/09 04:56:17;;;;;;;;;;;;;;;3.37;100.00;96264.56;10517170;28;1913;-77
2023/04/09 05:01:21;;;;;;;;;;;;;;;3.42;100.00;96258.59;10526427;28;1159;-76
2023/04/09 05:06:23;;;;;;;;;;;;;;;3.56;100.00;96277.91;10514768;28;1451;-78
2023/04/09 05:11:26;;;;;;;;;;;;;;;3.29;100.00;96275.44;10502121;28;1471;-77
2023/04/09 05:16:30;;;;;;;;;;;;;;;3.11;100.00;96293.94;10515257;28;1914;-78
2023/04/09 05:21:34;;;;;;;;;;;;;;;2.98;100.00;96298.31;10517354;28;1495;-79
2023/04/09 05:26:36;;;;;;;;;;;;;;;2.88;100.00;96302.47;10530827;28;1057;-79
2023/04/09 05:31:39;;;;;;;;;;;;;;;2.91;100.00;96310.00;10516740;28;1138;-77
2023/04/09 05:36:43;;;;;;;;;;;;;;;2.91;100.00;96315.31;10530597;28;1902;-78
2023/04/09 05:41:46;;;;;;;;;;;;;;;3.06;100.00;96325.69;10517609;28;1444;-78
2023/04/09 05:46:48;;;;;;;;;;;;;;;3.40;100.00;96319.13;10515873;28;1092;-77
2023/04/09 05:52:01;;;;;;;;;;;;;;;4.34;100.00;96300.28;10515629;28;1716;-78
2023/04/09 05:57:03;;;;;;;;;;;;;;;4.85;100.00;96284.94;10536265;28;1914;-77
2023/04/09 06:02:07;;;;;;;;;;;;;;;5.18;100.00;96273.03;10526274;28;1131;-77
2023/04/09 06:07:09;;;;;;;;;;;;;;;5.47;100.00;96268.69;10530529;28;1456;-77
2023/04/09 06:12:12;;;;;;;;;;;;;;;5.73;100.00;96264.81;10528772;28;1763;-78
2023/04/09 06:17:14;;;;;;;;;;;;;;;5.62;100.00;96283.22;10531656;28;1918;-78
2023/04/09 06:22:17;;;;;;;;;;;;;;;5.28;100.00;96294.59;10538877;28;1670;-76
2023/04/09 06:27:20;;;;;;;;;;;;;;;5.15;100.00;96296.44;10526164;28;1570;-78
2023/04/09 06:32:23;;;;;;;;;;;;;;;5.08;100.00;96301.03;10530262;28;1136;-77
2023/04/09 06:37:25;;;;;;;;;;;;;;;5.38;100.00;96305.53;10537846;28;1980;-78
2023/04/09 06:42:28;;;;;;;;;;;;;;;5.66;100.00;96294.22;10520778;28;1507;-78
2023/04/09 06:47:31;;;;;;;;;;;;;;;5.95;100.00;96296.03;10533629;28;1483;-77
2023/04/09 06:52:34;;;;;;;;;;;;;;;5.99;100.00;96293.72;10536259;28;1168;-77
2023/04/09 06:57:37;;;;;;;;;;;;;;;5.66;100.00;96296.88;10529440;28;1918;-79
2023/04/09 07:02:39;;;;;;;;;;;;;;;5.90;100.00;96300.41;10523817;28;1136;-79
2023/04/09 07:07:42;;;;;;;;;;;;;;;5.95;100.00;96301.38;10523122;28;1622;-78
2023/04/09 07:12:46;;;;;;;;;;;;;;;6.37;100.00;96309.28;10521077;28;1510;-79
2023/04/09 07:17:48;;;;;;;;;;;;;;;6.83;100.00;96304.06;10510029;28;1914;-77
2023/04/09 07:22:51;;;;;;;;;;;;;;;7.34;100.00;96303.19;10519743;28;1447;-78
2023/04/09 07:27:54;;;;;;;;;;;;;;;7.76;100.00;96302.81;10527555;28;1345;-77
2023/04/09 07:32:57;;;;;;;;;;;;;;;7.52;100.00;96310.19;10519126;28;1171;-78
2023/04/09 07:37:59;;;;;;;;;;;;;;;7.57;100.00;96305.75;10515515;28;1917;-77
2023/04/09 07:43:02;;;;;;;;;;;;;;;7.93;100.00;96305.50;10510679;28;1462;-79
2023/04/09 07:48:04;;;;;;;;;;;;;;;8.19;100.00;96296.00;10507804;28;1475;-77
2023/04/09 07:53:07;;;;;;;;;;;;;;;7.32;100.00;96299.94;10535466;28;1407;-81
2023/04/09 07:58:10;;;;;;;;;;;;;;;7.61;100.00;96306.06;10503609;28;1913;-79
2023/04/09 08:03:13;;;;;;;;;;;;;;;7.66;100.00;96305.34;10509022;28;1439;-78
2023/04/09 08:08:15;;;;;;;;;;;;;;;8.55;100.00;96294.66;10526949;28;1214;-79
2023/04/09 08:13:24;;;;;;;;;;;;;;;8.52;100.00;96295.97;10539406;28;1554;-77
2023/04/09 08:18:26;;;;;;;;;;;;;;;8.76;100.00;96307.28;10522745;28;1909;-80
2023/04/09 08:23:28;;;;;;;;;;;;;;;8.43;100.00;96305.50;10519965;28;1458;-79
2023/04/09 08:28:31;;;;;;;;;;;;;;;8.85;100.00;96307.66;10526285;28;1431;-78
2023/04/09 08:33:33;;;;;;;;;;;;;;;7.81;100.00;96313.63;10525320;28;1171;-79
2023/04/09 08:38:35;;;;;;;;;;;;;;;7.82;100.00;96312.56;10508294;28;1913;-78
2023/04/09 08:43:38;;;;;;;;;;;;;;;7.57;100.00;96311.09;10533275;28;1583;-77
2023/04/09 08:49:00;;;;;;;;;;;;;;;7.65;100.00;96322.47;10529070;28;1439;-79
2023/04/09 08:54:03;;;;;;;;;;;;;;;7.60;100.00;96317.81;10521136;28;1906;-78
2023/04/09 08:59:06;;;;;;;;;;;;;;;8.02;100.00;96333.50;10507319;28;1530;-77
2023/04/09 09:04:09;;;;;;;;;;;;;;;8.11;100.00;96334.72;10503269;28;1108;-78
2023/04/09 09:09:20;;;;;;;;;;;;;;;8.29;100.00;96325.63;10533546;28;1448;-78
2023/04/09 09:14:22;;;;;;;;;;;;;;;9.04;100.00;96322.38;10524020;28;1973;-78
2023/04/09 09:19:24;;;;;;;;;;;;;;;9.86;99.79;96313.28;10525670;28;1480;-77
2023/04/09 09:24:28;;;;;;;;;;;;;;;9.78;99.85;96321.78;10532256;28;1191;-78
2023/04/09 09:29:30;;;;;;;;;;;;;;;8.42;100.00;96325.31;10512964;28;1491;-79
2023/04/09 09:34:34;;;;;;;;;;;;;;;9.37;100.00;96320.59;10516783;28;1922;-79
2023/04/09 09:39:37;;;;;;;;;;;;;;;9.30;100.00;96319.97;10533079;28;1546;-78
2023/04/09 09:44:42;;;;;;;;;;;;;;;9.91;100.00;96317.88;10538498;28;1410;-77
2023/04/09 09:49:45;;;;;;;;;;;;;;;9.24;100.00;96318.31;10516998;28;1432;-79
2023/04/09 09:54:48;;;;;;;;;;;;;;;8.87;100.00;96322.44;10535908;28;1971;-79
2023/04/09 09:59:50;;;;;;;;;;;;;;;9.13;100.00;96326.22;10521844;28;1523;-78
2023/04/09 10:04:53;;;;;;;;;;;;;;;9.20;100.00;96326.84;10531939;28;1523;-79
2023/04/09 10:09:56;;;;;;;;;;;;;;;9.57;100.00;96320.78;10508531;28;1423;-78
2023/04/09 10:15:03;;;;;;;;;;;;;;;9.66;100.00;96318.44;10518569;28;1963;-78
2023/04/09 10:20:06;;;;;;;;;;;;;;;9.73;100.00;96325.25;10526170;28;1430;-78
2023/04/09 10:25:09;;;;;;;;;;;;;;;9.61;100.00;96321.13;10528032;28;1133;-76
2023/04/09 10:30:12;;;;;;;;;;;;;;;9.70;100.00;96320.38;10534735;28;1487;-76
2023/04/09 10:35:15;;;;;;;;;;;;;;;9.83;100.00;96319.16;10507651;28;1910;-78
2023/04/09 10:40:18;;;;;;;;;;;;;;;10.78;97.60;96316.63;10534512;28;1546;-78
2023/04/09 10:45:21;;;;;;;;;;;;;;;11.13;88.45;96324.03;10539862;28;1115;-78
2023/04/09 10:50:29;;;;;;;;;;;;;;;10.18;99.38;96320.50;10535043;28;1451;-77
2023/04/09 10:55:32;;;;;;;;;;;;;;;9.40;100.00;96320.06;10517218;28;1910;-78
2023/04/09 11:00:38;;;;;;;;;;;;;;;9.22;100.00;96318.53;10528770;28;1475;-79
2023/04/09 11:05:40;;;;;;;;;;;;;;;9.92;99.22;96316.81;10517451;28;1111;-77
2023/04/09 11:10:43;;;;;;;;;;;;;;;10.22;86.25;96303.63;10516303;28;1451;-79
2023/04/09 11:15:49;;;;;;;;;;;;;;;10.86;82.40;96304.56;10522247;28;1972;-78
2023/04/09 11:20:52;;;;;;;;;;;;;;;10.45;78.77;96301.66;10536008;28;1436;-78
2023/04/09 11:25:55;;;;;;;;;;;;;;;10.55;73.20;96296.31;10516183;28;1447;-78
2023/04/09 11:30:58;;;;;;;;;;;;;;;10.09;71.35;96298.69;10528316;28;1191;-79
2023/04/09 11:36:01;;;;;;;;;;;;;;;9.95;65.38;96308.25;10524229;28;1890;-77
2023/04/09 11:41:04;;;;;;;;;;;;;;;9.52;72.53;96306.50;10530501;28;1484;-78
2023/04/09 11:46:07;;;;;;;;;;;;;;;9.85;78.39;96308.16;10506792;28;1132;-79
2023/04/09 11:51:10;;;;;;;;;;;;;;;10.13;79.57;96309.72;10534716;28;1384;-79
2023/04/09 11:56:13;;;;;;;;;;;;;;;9.97;85.18;96314.97;10532880;28;1906;-80
2023/04/09 12:01:16;;;;;;;;;;;;;;;9.60;90.63;96322.16;10515202;28;1124;-78
2023/04/09 12:06:18;;;;;;;;;;;;;;;9.31;94.80;96322.41;10531947;28;1554;-78
2023/04/09 12:11:22;;;;;;;;;;;;;;;9.33;94.67;96322.16;10521520;28;1463;-78
2023/04/09 12:16:24;;;;;;;;;;;;;;;10.14;84.65;96322.91;10532734;28;1910;-78
2023/04/09 12:21:27;;;;;;;;;;;;;;;10.14;89.40;96314.84;10502737;28;1159;-79
2023/04/09 12:26:30;;;;;;;;;;;;;;;10.65;87.40;96320.59;10517937;28;1455;-79
2023/04/09 12:31:38;;;;;;;;;;;;;;;10.59;84.46;96321.63;10535017;28;1076;-78
2023/04/09 12:36:41;;;;;;;;;;;;;;;10.54;85.62;96308.16;10510087;28;1914;-79
2023/04/09 12:41:45;;;;;;;;;;;;;;;10.37;87.40;96310.19;10534283;28;1495;-80
2023/04/09 12:46:48;;;;;;;;;;;;;;;10.60;86.48;96307.09;10517221;28;1123;-78
2023/04/09 12:51:51;;;;;;;;;;;;;;;10.78;84.81;96303.97;10526066;28;1467;-79
2023/04/09 12:56:53;;;;;;;;;;;;;;;10.49;86.18;96305.41;10516216;28;1918;-79
2023/04/09 13:01:55;;;;;;;;;;;;;;;10.15;91.96;96308.41;10497129;28;1183;-78
2023/04/09 13:06:59;;;;;;;;;;;;;;;9.53;100.00;96298.19;10523888;28;1471;-77
2023/04/09 13:12:02;;;;;;;;;;;;;;;10.31;98.71;96303.16;10533022;28;1448;-78
2023/04/09 13:17:05;;;;;;;;;;;;;;;9.60;100.00;96304.16;10510989;28;1914;-77
2023/04/09 13:22:08;;;;;;;;;;;;;;;9.42;100.00;96302.69;10511276;28;1428;-78
2023/04/09 13:27:10;;;;;;;;;;;;;;;9.50;100.00;96306.78;10518824;28;1132;-79
2023/04/09 13:32:13;;;;;;;;;;;;;;;10.50;100.00;96307.06;10510221;28;1483;-79
2023/04/09 13:37:15;;;;;;;;;;;;;;;9.72;100.00;96302.13;10528816;28;1914;-79
2023/04/09 13:42:18;;;;;;;;;;;;;;;9.66;100.00;96292.41;10516186;28;1444;-79
2023/04/09 13:47:20;;;;;;;;;;;;;;;9.35;100.00;96287.81;10523742;28;1146;-79
2023/04/09 13:52:23;;;;;;;;;;;;;;;10.13;100.00;96278.31;10530259;28;1448;-79
2023/04/09 13:57:30;;;;;;;;;;;;;;;9.96;100.00;96274.94;10534090;28;1972;-77
2023/04/09 14:02:33;;;;;;;;;;;;;;;10.07;100.00;96275.84;10513381;28;1518;-78
2023/04/09 14:07:36;;;;;;;;;;;;;;;9.37;100.00;96278.47;10531353;28;1451;-79
2023/04/09 14:12:38;;;;;;;;;;;;;;;9.30;100.00;96271.69;10523394;28;1510;-79
2023/04/09 14:17:41;;;;;;;;;;;;;;;9.94;100.00;96271.72;10531317;28;1914;-77
2023/04/09 14:22:47;;;;;;;;;;;;;;;10.51;97.94;96268.38;10518863;28;1704;-79
2023/04/09 14:27:50;;;;;;;;;;;;;;;10.13;98.66;96270.25;10531521;28;1101;-78
2023/04/09 14:32:53;;;;;;;;;;;;;;;9.67;96.65;96266.38;10518405;28;1448;-79
2023/04/09 14:37:57;;;;;;;;;;;;;;;9.92;93.40;96266.59;10530321;28;1913;-79
2023/04/09 14:42:59;;;;;;;;;;;;;;;10.50;93.82;96259.50;10526492;28;1558;-78
2023/04/09 14:48:02;;;;;;;;;;;;;;;9.70;100.00;96261.31;10526643;28;1159;-78
2023/04/09 14:53:05;;;;;;;;;;;;;;;8.98;100.00;96263.56;10534211;28;1499;-77
2023/04/09 14:58:08;;;;;;;;;;;;;;;8.48;100.00;96264.56;10513158;28;1985;-80
2023/04/09 15:03:11;;;;;;;;;;;;;;;8.72;100.00;96263.28;10530323;28;1111;-79
2023/04/09 15:08:14;;;;;;;;;;;;;;;8.94;100.00;96268.63;10523212;28;1487;-80
2023/04/09 15:13:17;;;;;;;;;;;;;;;8.88;100.00;96265.06;10521843;28;1482;-78
2023/04/09 15:18:20;;;;;;;;;;;;;;;8.82;100.00;96259.88;10528466;28;1918;-78
2023/04/09 15:23:23;;;;;;;;;;;;;;;8.94;100.00;96257.91;10528370;28;1519;-78
2023/04/09 15:28:26;;;;;;;;;;;;;;;9.40;100.00;96248.44;10528035;28;1108;-78
2023/04/09 15:33:31;;;;;;;;;;;;;;;9.39;100.00;96256.75;10527793;28;1506;-78
2023/04/09 15:38:33;;;;;;;;;;;;;;;8.96;100.00;96263.00;10519052;28;1931;-78
2023/04/09 15:43:36;;;;;;;;;;;;;;;8.73;100.00;96261.41;10535396;28;1641;-80
2023/04/09 15:48:38;;;;;;;;;;;;;;;8.40;100.00;96260.47;10505223;28;1424;-79
2023/04/09 15:53:41;;;;;;;;;;;;;;;8.57;100.00;96253.16;10518398;28;1064;-79
2023/04/09 15:58:44;;;;;;;;;;;;;;;8.51;100.00;96253.34;10528803;28;1984;-79
2023/04/09 16:03:50;;;;;;;;;;;;;;;8.44;100.00;96250.03;10516803;28;1123;-79
2023/04/09 16:08:53;;;;;;;;;;;;;;;8.37;100.00;96244.88;10512688;28;1459;-80
2023/04/09 16:13:57;;;;;;;;;;;;;;;8.38;99.84;96243.81;10517609;28;1740;-79
2023/04/09 16:19:00;;;;;;;;;;;;;;;8.28;100.00;96252.50;10534127;28;1922;-79
2023/04/09 16:24:02;;;;;;;;;;;;;;;8.29;100.00;96251.44;10521036;28;1335;-78
2023/04/09 16:29:05;;;;;;;;;;;;;;;8.21;100.00;96251.06;10530309;28;1503;-79
2023/04/09 16:34:08;;;;;;;;;;;;;;;8.23;99.74;96255.09;10520540;28;1243;-79
2023/04/09 16:39:11;;;;;;;;;;;;;;;8.17;100.00;96252.59;10539749;28;1984;-79
2023/04/09 16:44:14;;;;;;;;;;;;;;;8.20;100.00;96252.09;10538446;28;1678;-79
2023/04/09 16:49:16;;;;;;;;;;;;;;;8.06;100.00;96252.44;10533092;28;1514;-78
2023/04/09 16:54:19;;;;;;;;;;;;;;;8.00;100.00;96258.78;10513259;28;1212;-79
2023/04/09 16:59:24;;;;;;;;;;;;;;;7.87;100.00;96253.75;10516725;28;1977;-79
2023/04/09 17:04:27;;;;;;;;;;;;;;;7.83;100.00;96258.00;10517369;28;1147;-79
2023/04/09 17:09:30;;;;;;;;;;;;;;;7.73;100.00;96265.84;10514771;28;1510;-80
2023/04/09 17:14:33;;;;;;;;;;;;;;;7.67;100.00;96256.13;10534279;28;1115;-79
2023/04/09 17:19:36;;;;;;;;;;;;;;;7.63;100.00;96260.31;10533242;28;1968;-78
2023/04/09 17:24:39;;;;;;;;;;;;;;;7.45;100.00;96264.88;10533041;28;1016;-78
2023/04/09 17:29:42;;;;;;;;;;;;;;;7.46;100.00;96265.69;10518971;28;1456;-78
2023/04/09 17:34:44;;;;;;;;;;;;;;;7.39;100.00;96265.84;10543338;28;1120;-79
2023/04/09 17:39:48;;;;;;;;;;;;;;;7.26;100.00;96269.63;10524865;28;1963;-79
2023/04/09 17:44:50;;;;;;;;;;;;;;;7.23;100.00;96267.41;10532194;28;1112;-81
2023/04/09 17:50:03;;;;;;;;;;;;;;;7.07;100.00;96278.09;10529620;28;1427;-77
2023/04/09 17:55:06;;;;;;;;;;;;;;;7.01;100.00;96286.00;10529271;28;1135;-78
2023/04/09 18:00:09;;;;;;;;;;;;;;;6.74;100.00;96282.25;10529364;28;1921;-77
2023/04/09 18:05:19;;;;;;;;;;;;;;;6.65;100.00;96295.16;10523860;28;1072;-79
2023/04/09 18:10:23;;;;;;;;;;;;;;;6.49;100.00;96294.03;10529039;28;1455;-79
2023/04/09 18:15:26;;;;;;;;;;;;;;;6.34;100.00;96290.22;10540676;28;1128;-78
2023/04/09 18:20:28;;;;;;;;;;;;;;;6.18;100.00;96289.91;10523969;28;1969;-78
2023/04/09 18:25:31;;;;;;;;;;;;;;;6.10;100.00;96292.09;10514400;28;1240;-77
2023/04/09 18:30:34;;;;;;;;;;;;;;;6.12;100.00;96306.03;10523556;28;1491;-78
2023/04/09 18:35:47;;;;;;;;;;;;;;;5.96;100.00;96311.00;10530902;28;1367;-78
2023/04/09 18:40:50;;;;;;;;;;;;;;;5.99;100.00;96317.75;10511429;28;1900;-78
2023/04/09 18:45:52;;;;;;;;;;;;;;;6.05;100.00;96316.00;10528721;28;1207;-79
2023/04/09 18:50:57;;;;;;;;;;;;;;;5.84;100.00;96326.16;10533205;28;1436;-78
2023/04/09 18:56:00;;;;;;;;;;;;;;;5.66;100.00;96328.91;10529780;28;1386;-79
2023/04/09 19:01:03;;;;;;;;;;;;;;;5.58;100.00;96337.22;10541946;28;1921;-78
2023/04/09 19:06:06;;;;;;;;;;;;;;;5.41;100.00;96339.75;10534113;28;1408;-78
2023/04/09 19:11:09;;;;;;;;;;;;;;;5.28;100.00;96350.56;10531119;28;1463;-78
2023/04/09 19:16:13;;;;;;;;;;;;;;;5.33;100.00;96348.06;10527860;28;1117;-79
2023/04/09 19:21:17;;;;;;;;;;;;;;;5.21;100.00;96356.00;10538074;28;1913;-79
2023/04/09 19:26:20;;;;;;;;;;;;;;;5.14;100.00;96341.94;10531580;28;1120;-78
2023/04/09 19:31:24;;;;;;;;;;;;;;;5.00;100.00;96345.81;10515394;28;1678;-78
2023/04/09 19:36:27;;;;;;;;;;;;;;;4.94;100.00;96347.53;10535149;28;1404;-79
2023/04/09 19:41:30;;;;;;;;;;;;;;;4.84;100.00;96347.25;10521860;28;1906;-78
2023/04/09 19:46:33;;;;;;;;;;;;;;;4.84;100.00;96347.25;10503249;28;965;-77
2023/04/09 19:51:35;;;;;;;;;;;;;;;4.85;100.00;96354.22;10520709;28;1818;-79
2023/04/09 19:56:38;;;;;;;;;;;;;;;5.05;100.00;96349.44;10527973;28;1440;-78
2023/04/09 20:01:40;;;;;;;;;;;;;;;5.24;100.00;96347.56;10528544;28;1918;-77
2023/04/09 20:06:44;;;;;;;;;;;;;;;5.27;100.00;96352.44;10515826;28;1443;-78
2023/04/09 20:11:46;;;;;;;;;;;;;;;5.32;100.00;96352.56;10522119;28;1572;-78
2023/04/09 20:16:49;;;;;;;;;;;;;;;5.37;100.00;96350.03;10510890;28;1980;-79
2023/04/09 20:21:54;;;;;;;;;;;;;;;5.25;100.00;96346.53;10518883;28;1476;-78
2023/04/09 20:26:58;;;;;;;;;;;;;;;5.16;100.00;96342.56;10532200;28;1116;-78
2023/04/09 20:32:12;;;;;;;;;;;;;;;5.05;100.00;96351.31;10511864;28;1681;-78
2023/04/09 20:37:15;;;;;;;;;;;;;;;4.95;100.00;96337.69;10530549;28;1918;-78
2023/04/09 20:42:18;;;;;;;;;;;;;;;4.66;100.00;96345.41;10526878;28;1767;-77
2023/04/09 20:47:21;;;;;;;;;;;;;;;4.80;100.00;96346.88;10524420;28;1428;-79
2023/04/09 20:52:26;;;;;;;;;;;;;;;4.82;100.00;96341.31;10512413;28;1443;-79
2023/04/09 20:57:29;;;;;;;;;;;;;;;4.75;100.00;96348.59;10518657;28;1902;-79
2023/04/09 21:02:31;;;;;;;;;;;;;;;4.66;100.00;96353.41;10526695;28;1431;-78
2023/04/09 21:07:35;;;;;;;;;;;;;;;4.50;100.00;96348.66;10509673;28;1518;-77
2023/04/09 21:12:37;;;;;;;;;;;;;;;4.46;100.00;96347.47;10539063;28;1546;-80
2023/04/09 21:17:40;;;;;;;;;;;;;;;4.42;100.00;96360.41;10534532;28;1967;-79
2023/04/09 21:22:43;;;;;;;;;;;;;;;4.42;100.00;96355.09;10541559;28;1705;-79
2023/04/09 21:27:48;;;;;;;;;;;;;;;4.40;100.00;96356.34;10521837;28;1459;-79
2023/04/09 21:32:53;;;;;;;;;;;;;;;4.16;100.00;96364.13;10543126;28;1156;-77
2023/04/09 21:37:55;;;;;;;;;;;;;;;4.04;100.00;96353.38;10527825;28;1910;-77
2023/04/09 21:43:04;;;;;;;;;;;;;;;4.03;100.00;96345.63;10538917;28;1452;-78
2023/04/09 21:48:07;;;;;;;;;;;;;;;3.91;100.00;96358.00;10523709;28;1128;-80
2023/04/09 21:53:12;;;;;;;;;;;;;;;3.82;100.00;96360.13;10525219;28;1724;-79
2023/04/09 21:58:16;;;;;;;;;;;;;;;3.85;100.00;96357.03;10540128;28;1906;-77
2023/04/09 22:03:18;;;;;;;;;;;;;;;3.69;100.00;96365.53;10503528;28;1172;-80
2023/04/09 22:08:22;;;;;;;;;;;;;;;3.62;100.00;96368.22;10537070;28;1515;-78
2023/04/09 22:13:24;;;;;;;;;;;;;;;3.51;100.00;96374.25;10527407;28;1447;-78
2023/04/09 22:18:27;;;;;;;;;;;;;;;3.60;100.00;96382.78;10511811;28;1981;-78
2023/04/09 22:23:30;;;;;;;;;;;;;;;3.64;100.00;96389.31;10530521;28;1113;-78
2023/04/09 22:28:32;;;;;;;;;;;;;;;3.60;100.00;96398.72;10522381;28;1545;-79
2023/04/09 22:33:35;;;;;;;;;;;;;;;3.66;100.00;96390.72;10522123;28;1322;-78
2023/04/09 22:38:37;;;;;;;;;;;;;;;3.64;100.00;96390.13;10526126;28;1918;-78
2023/04/09 22:43:40;;;;;;;;;;;;;;;3.53;100.00;96383.63;10538326;28;1571;-78
2023/04/09 22:48:42;;;;;;;;;;;;;;;3.46;100.00;96387.38;10532124;28;1491;-77
2023/04/09 22:53:46;;;;;;;;;;;;;;;3.42;100.00;96381.66;10529341;28;1135;-79
2023/04/09 22:58:48;;;;;;;;;;;;;;;3.30;100.00;96364.75;10537951;28;1937;-78
2023/04/09 23:03:51;;;;;;;;;;;;;;;3.23;100.00;96370.09;10526277;28;1471;-78
2023/04/09 23:08:54;;;;;;;;;;;;;;;3.14;100.00;96363.41;10505942;28;1389;-78
2023/04/09 23:13:57;;;;;;;;;;;;;;;3.15;100.00;96359.72;10528003;28;1626;-78
2023/04/09 23:19:01;;;;;;;;;;;;;;;3.18;100.00;96359.31;10536295;28;1905;-79
2023/04/09 23:24:04;;;;;;;;;;;;;;;3.17;100.00;96360.31;10528461;28;1160;-78
2023/04/09 23:29:07;;;;;;;;;;;;;;;3.10;100.00;96346.25;10535664;28;1861;-79
2023/04/09 23:34:09;;;;;;;;;;;;;;;3.04;100.00;96352.44;10528488;28;1127;-78
2023/04/09 23:39:22;;;;;;;;;;;;;;;3.01;100.00;96357.38;10520684;28;1967;-78
2023/04/09 23:44:24;;;;;;;;;;;;;;;3.00;100.00;96340.63;10529060;28;1167;-79
2023/04/09 23:49:27;;;;;;;;;;;;;;;3.05;100.00;96342.63;10531756;28;1436;-78
2023/04/09 23:54:30;;;;;;;;;;;;;;;3.15;100.00;96338.47;10528377;28;1084;-78
2023/04/09 23:59:34;;;;;;;;;;;;;;;2.97;100.00;96344.50;10518876;28;1914;-77
